sensor_id;sensor_type;location;lat;lon;timestamp;temperature;humidity
78611;SHT30;67932;50.474;4.436;2023-07-08T00:00:53;20.43;62.40
78611;SHT30;67932;50.474;4.436;2023-07-08T00:03:20;20.46;61.33
78611;SHT30;67932;50.474;4.436;2023-07-08T00:05:48;20.50;62.64
78611;SHT30;67932;50.474;4.436;2023-07-08T00:08:17;20.47;63.42
78611;SHT30;67932;50.474;4.436;2023-07-08T00:10:44;20.56;63.16
78611;SHT30;67932;50.474;4.436;2023-07-08T00:13:11;20.61;60.57
78611;SHT30;67932;50.474;4.436;2023-07-08T00:15:38;20.70;60.68
78611;SHT30;67932;50.474;4.436;2023-07-08T00:18:16;20.68;61.63
78611;SHT30;67932;50.474;4.436;2023-07-08T00:20:47;20.64;62.87
78611;SHT30;67932;50.474;4.436;2023-07-08T00:23:13;20.66;61.67
78611;SHT30;67932;50.474;4.436;2023-07-08T00:25:40;20.67;60.31
78611;SHT30;67932;50.474;4.436;2023-07-08T00:28:17;20.67;60.34
78611;SHT30;67932;50.474;4.436;2023-07-08T00:30:45;20.61;60.92
78611;SHT30;67932;50.474;4.436;2023-07-08T00:33:12;20.53;61.99
78611;SHT30;67932;50.474;4.436;2023-07-08T00:35:41;20.48;62.08
78611;SHT30;67932;50.474;4.436;2023-07-08T00:38:24;20.44;62.63
78611;SHT30;67932;50.474;4.436;2023-07-08T00:43:43;20.27;62.48
78611;SHT30;67932;50.474;4.436;2023-07-08T00:51:34;20.23;62.60
78611;SHT30;67932;50.474;4.436;2023-07-08T00:54:00;20.23;63.31
78611;SHT30;67932;50.474;4.436;2023-07-08T00:56:43;20.24;64.33
78611;SHT30;67932;50.474;4.436;2023-07-08T00:59:26;20.27;63.85
78611;SHT30;67932;50.474;4.436;2023-07-08T01:01:55;20.30;64.47
78611;SHT30;67932;50.474;4.436;2023-07-08T01:07:20;20.32;62.73
78611;SHT30;67932;50.474;4.436;2023-07-08T01:10:03;20.24;63.22
78611;SHT30;67932;50.474;4.436;2023-07-08T01:12:35;20.20;64.40
78611;SHT30;67932;50.474;4.436;2023-07-08T01:15:03;20.24;61.89
78611;SHT30;67932;50.474;4.436;2023-07-08T01:17:30;20.23;62.30
78611;SHT30;67932;50.474;4.436;2023-07-08T01:20:05;20.23;62.32
78611;SHT30;67932;50.474;4.436;2023-07-08T01:22:35;20.20;62.11
78611;SHT30;67932;50.474;4.436;2023-07-08T01:25:02;20.16;62.13
78611;SHT30;67932;50.474;4.436;2023-07-08T01:27:38;20.19;62.03
78611;SHT30;67932;50.474;4.436;2023-07-08T01:30:08;20.16;62.31
78611;SHT30;67932;50.474;4.436;2023-07-08T01:32:39;20.16;62.14
78611;SHT30;67932;50.474;4.436;2023-07-08T01:35:08;20.13;62.44
78611;SHT30;67932;50.474;4.436;2023-07-08T01:37:41;20.17;62.11
78611;SHT30;67932;50.474;4.436;2023-07-08T01:42:41;20.16;62.71
78611;SHT30;67932;50.474;4.436;2023-07-08T01:45:16;20.03;63.45
78611;SHT30;67932;50.474;4.436;2023-07-08T01:47:45;19.99;63.72
78611;SHT30;67932;50.474;4.436;2023-07-08T01:50:14;19.92;63.79
78611;SHT30;67932;50.474;4.436;2023-07-08T01:52:40;19.83;64.28
78611;SHT30;67932;50.474;4.436;2023-07-08T01:55:07;19.78;65.66
78611;SHT30;67932;50.474;4.436;2023-07-08T01:57:33;19.73;66.18
78611;SHT30;67932;50.474;4.436;2023-07-08T02:00:00;19.69;66.57
78611;SHT30;67932;50.474;4.436;2023-07-08T02:02:26;19.54;65.61
78611;SHT30;67932;50.474;4.436;2023-07-08T02:04:52;19.41;66.04
78611;SHT30;67932;50.474;4.436;2023-07-08T02:07:18;19.29;66.23
78611;SHT30;67932;50.474;4.436;2023-07-08T02:09:45;19.17;67.15
78611;SHT30;67932;50.474;4.436;2023-07-08T02:12:11;19.14;67.64
78611;SHT30;67932;50.474;4.436;2023-07-08T02:14:38;19.15;68.00
78611;SHT30;67932;50.474;4.436;2023-07-08T02:17:04;19.28;67.33
78611;SHT30;67932;50.474;4.436;2023-07-08T02:19:31;19.39;67.00
78611;SHT30;67932;50.474;4.436;2023-07-08T02:21:58;19.51;66.08
78611;SHT30;67932;50.474;4.436;2023-07-08T02:24:24;19.57;66.33
78611;SHT30;67932;50.474;4.436;2023-07-08T02:26:50;19.61;65.52
78611;SHT30;67932;50.474;4.436;2023-07-08T02:29:16;19.69;64.99
78611;SHT30;67932;50.474;4.436;2023-07-08T02:31:42;19.72;66.51
78611;SHT30;67932;50.474;4.436;2023-07-08T02:34:09;19.65;66.07
78611;SHT30;67932;50.474;4.436;2023-07-08T02:36:35;19.52;67.34
78611;SHT30;67932;50.474;4.436;2023-07-08T02:39:02;19.38;67.53
78611;SHT30;67932;50.474;4.436;2023-07-08T02:41:28;19.28;67.98
78611;SHT30;67932;50.474;4.436;2023-07-08T02:43:55;19.31;67.69
78611;SHT30;67932;50.474;4.436;2023-07-08T02:46:21;19.24;67.93
78611;SHT30;67932;50.474;4.436;2023-07-08T02:48:47;19.27;68.24
78611;SHT30;67932;50.474;4.436;2023-07-08T02:51:13;19.31;67.94
78611;SHT30;67932;50.474;4.436;2023-07-08T02:53:40;19.36;68.47
78611;SHT30;67932;50.474;4.436;2023-07-08T02:56:06;19.42;68.44
78611;SHT30;67932;50.474;4.436;2023-07-08T02:58:32;19.34;66.70
78611;SHT30;67932;50.474;4.436;2023-07-08T03:01:00;19.28;67.42
78611;SHT30;67932;50.474;4.436;2023-07-08T03:03:27;19.29;68.06
78611;SHT30;67932;50.474;4.436;2023-07-08T03:06:05;19.28;68.27
78611;SHT30;67932;50.474;4.436;2023-07-08T03:08:31;19.14;68.79
78611;SHT30;67932;50.474;4.436;2023-07-08T03:11:01;19.10;69.08
78611;SHT30;67932;50.474;4.436;2023-07-08T03:13:28;19.14;68.84
78611;SHT30;67932;50.474;4.436;2023-07-08T03:15:56;19.14;66.74
78611;SHT30;67932;50.474;4.436;2023-07-08T03:18:23;19.12;67.14
78611;SHT30;67932;50.474;4.436;2023-07-08T03:20:50;19.18;67.04
78611;SHT30;67932;50.474;4.436;2023-07-08T03:23:16;19.15;67.32
78611;SHT30;67932;50.474;4.436;2023-07-08T03:25:42;19.11;69.18
78611;SHT30;67932;50.474;4.436;2023-07-08T03:28:09;19.01;69.25
78611;SHT30;67932;50.474;4.436;2023-07-08T03:30:44;18.97;69.90
78611;SHT30;67932;50.474;4.436;2023-07-08T03:33:11;18.95;69.94
78611;SHT30;67932;50.474;4.436;2023-07-08T03:35:38;18.88;70.37
78611;SHT30;67932;50.474;4.436;2023-07-08T03:38:05;18.90;70.55
78611;SHT30;67932;50.474;4.436;2023-07-08T03:40:32;18.87;70.78
78611;SHT30;67932;50.474;4.436;2023-07-08T03:42:58;18.87;69.32
78611;SHT30;67932;50.474;4.436;2023-07-08T03:45:26;18.90;67.98
78611;SHT30;67932;50.474;4.436;2023-07-08T03:47:52;18.97;68.03
78611;SHT30;67932;50.474;4.436;2023-07-08T03:50:24;18.95;68.96
78611;SHT30;67932;50.474;4.436;2023-07-08T03:52:51;19.00;69.64
78611;SHT30;67932;50.474;4.436;2023-07-08T03:55:18;18.93;69.79
78611;SHT30;67932;50.474;4.436;2023-07-08T03:57:45;18.93;69.55
78611;SHT30;67932;50.474;4.436;2023-07-08T04:00:12;18.85;70.50
78611;SHT30;67932;50.474;4.436;2023-07-08T04:02:40;18.83;70.81
78611;SHT30;67932;50.474;4.436;2023-07-08T04:05:08;18.83;68.95
78611;SHT30;67932;50.474;4.436;2023-07-08T04:07:36;18.84;68.61
78611;SHT30;67932;50.474;4.436;2023-07-08T04:10:03;18.78;70.28
78611;SHT30;67932;50.474;4.436;2023-07-08T04:12:29;18.83;69.68
78611;SHT30;67932;50.474;4.436;2023-07-08T04:14:55;18.73;70.54
78611;SHT30;67932;50.474;4.436;2023-07-08T04:17:21;18.65;70.24
78611;SHT30;67932;50.474;4.436;2023-07-08T04:19:49;18.59;70.58
78611;SHT30;67932;50.474;4.436;2023-07-08T04:22:16;18.60;70.74
78611;SHT30;67932;50.474;4.436;2023-07-08T04:24:42;18.59;70.48
78611;SHT30;67932;50.474;4.436;2023-07-08T04:27:14;18.60;69.87
78611;SHT30;67932;50.474;4.436;2023-07-08T04:29:42;18.60;69.86
78611;SHT30;67932;50.474;4.436;2023-07-08T04:32:08;18.65;69.21
78611;SHT30;67932;50.474;4.436;2023-07-08T04:34:34;18.70;68.67
78611;SHT30;67932;50.474;4.436;2023-07-08T04:37:01;18.70;68.13
78611;SHT30;67932;50.474;4.436;2023-07-08T04:39:27;18.74;68.10
78611;SHT30;67932;50.474;4.436;2023-07-08T04:41:54;18.81;68.28
78611;SHT30;67932;50.474;4.436;2023-07-08T04:44:20;18.88;67.17
78611;SHT30;67932;50.474;4.436;2023-07-08T04:49:19;18.98;67.56
78611;SHT30;67932;50.474;4.436;2023-07-08T04:51:45;19.08;66.78
78611;SHT30;67932;50.474;4.436;2023-07-08T04:54:12;19.05;67.86
78611;SHT30;67932;50.474;4.436;2023-07-08T04:59:06;19.18;69.09
78611;SHT30;67932;50.474;4.436;2023-07-08T05:01:33;19.32;66.83
78611;SHT30;67932;50.474;4.436;2023-07-08T05:04:00;19.48;66.48
78611;SHT30;67932;50.474;4.436;2023-07-08T05:06:27;19.51;67.79
78611;SHT30;67932;50.474;4.436;2023-07-08T05:08:54;19.52;66.52
78611;SHT30;67932;50.474;4.436;2023-07-08T05:11:20;19.54;66.66
78611;SHT30;67932;50.474;4.436;2023-07-08T05:13:46;19.57;65.49
78611;SHT30;67932;50.474;4.436;2023-07-08T05:16:13;19.72;64.34
78611;SHT30;67932;50.474;4.436;2023-07-08T05:18:39;19.75;64.79
78611;SHT30;67932;50.474;4.436;2023-07-08T05:21:05;19.83;64.53
78611;SHT30;67932;50.474;4.436;2023-07-08T05:23:31;19.99;62.04
78611;SHT30;67932;50.474;4.436;2023-07-08T05:26:02;20.05;63.62
78611;SHT30;67932;50.474;4.436;2023-07-08T05:28:28;20.06;65.56
78611;SHT30;67932;50.474;4.436;2023-07-08T05:30:55;19.99;65.53
78611;SHT30;67932;50.474;4.436;2023-07-08T05:33:23;19.99;65.81
78611;SHT30;67932;50.474;4.436;2023-07-08T05:35:50;20.06;64.72
78611;SHT30;67932;50.474;4.436;2023-07-08T05:38:16;20.10;65.39
78611;SHT30;67932;50.474;4.436;2023-07-08T05:40:43;20.16;65.27
78611;SHT30;67932;50.474;4.436;2023-07-08T05:43:09;20.32;64.37
78611;SHT30;67932;50.474;4.436;2023-07-08T05:45:35;20.44;64.08
78611;SHT30;67932;50.474;4.436;2023-07-08T05:48:02;20.54;61.74
78611;SHT30;67932;50.474;4.436;2023-07-08T05:50:28;20.70;62.78
78611;SHT30;67932;50.474;4.436;2023-07-08T05:52:55;20.73;61.74
78611;SHT30;67932;50.474;4.436;2023-07-08T05:55:21;20.77;62.62
78611;SHT30;67932;50.474;4.436;2023-07-08T05:57:47;20.80;62.56
78611;SHT30;67932;50.474;4.436;2023-07-08T06:00:14;20.87;62.40
78611;SHT30;67932;50.474;4.436;2023-07-08T06:02:40;21.01;61.18
78611;SHT30;67932;50.474;4.436;2023-07-08T06:05:06;21.01;62.37
78611;SHT30;67932;50.474;4.436;2023-07-08T06:07:33;21.05;61.02
78611;SHT30;67932;50.474;4.436;2023-07-08T06:09:59;21.18;58.92
78611;SHT30;67932;50.474;4.436;2023-07-08T06:12:25;21.32;58.73
78611;SHT30;67932;50.474;4.436;2023-07-08T06:14:52;21.43;57.18
78611;SHT30;67932;50.474;4.436;2023-07-08T06:17:18;21.46;57.99
78611;SHT30;67932;50.474;4.436;2023-07-08T06:19:44;21.56;57.84
78611;SHT30;67932;50.474;4.436;2023-07-08T06:22:11;21.61;56.68
78611;SHT30;67932;50.474;4.436;2023-07-08T06:24:37;21.76;57.34
78611;SHT30;67932;50.474;4.436;2023-07-08T06:27:04;21.71;59.59
78611;SHT30;67932;50.474;4.436;2023-07-08T06:29:30;21.81;55.97
78611;SHT30;67932;50.474;4.436;2023-07-08T06:31:56;21.93;54.38
78611;SHT30;67932;50.474;4.436;2023-07-08T06:34:22;22.16;52.62
78611;SHT30;67932;50.474;4.436;2023-07-08T06:36:50;22.24;51.78
78611;SHT30;67932;50.474;4.436;2023-07-08T06:39:17;22.27;53.66
78611;SHT30;67932;50.474;4.436;2023-07-08T06:41:43;22.27;52.37
78611;SHT30;67932;50.474;4.436;2023-07-08T06:44:10;22.36;54.27
78611;SHT30;67932;50.474;4.436;2023-07-08T06:46:37;22.32;53.57
78611;SHT30;67932;50.474;4.436;2023-07-08T06:49:03;22.41;53.15
78611;SHT30;67932;50.474;4.436;2023-07-08T06:51:35;22.44;54.32
78611;SHT30;67932;50.474;4.436;2023-07-08T06:54:01;22.50;53.23
78611;SHT30;67932;50.474;4.436;2023-07-08T06:56:40;22.68;51.19
78611;SHT30;67932;50.474;4.436;2023-07-08T06:59:10;22.65;51.08
78611;SHT30;67932;50.474;4.436;2023-07-08T07:01:36;22.68;51.57
78611;SHT30;67932;50.474;4.436;2023-07-08T07:04:05;22.70;53.20
78611;SHT30;67932;50.474;4.436;2023-07-08T07:06:31;22.70;52.75
78611;SHT30;67932;50.474;4.436;2023-07-08T07:08:58;22.65;52.47
78611;SHT30;67932;50.474;4.436;2023-07-08T07:11:24;22.81;50.55
78611;SHT30;67932;50.474;4.436;2023-07-08T07:13:50;22.86;52.42
78611;SHT30;67932;50.474;4.436;2023-07-08T07:16:16;22.88;52.27
78611;SHT30;67932;50.474;4.436;2023-07-08T07:18:42;22.98;52.51
78611;SHT30;67932;50.474;4.436;2023-07-08T07:21:09;22.98;52.86
78611;SHT30;67932;50.474;4.436;2023-07-08T07:23:35;23.01;53.84
78611;SHT30;67932;50.474;4.436;2023-07-08T07:26:01;23.04;53.61
78611;SHT30;67932;50.474;4.436;2023-07-08T07:28:29;23.05;53.11
78611;SHT30;67932;50.474;4.436;2023-07-08T07:30:59;23.70;49.74
78611;SHT30;67932;50.474;4.436;2023-07-08T07:33:26;23.63;52.98
78611;SHT30;67932;50.474;4.436;2023-07-08T07:35:53;23.72;51.13
78611;SHT30;67932;50.474;4.436;2023-07-08T07:38:19;23.93;50.21
78611;SHT30;67932;50.474;4.436;2023-07-08T07:40:45;23.93;50.71
78611;SHT30;67932;50.474;4.436;2023-07-08T07:43:12;24.07;50.18
78611;SHT30;67932;50.474;4.436;2023-07-08T07:45:38;24.21;49.37
78611;SHT30;67932;50.474;4.436;2023-07-08T07:48:04;24.30;49.59
78611;SHT30;67932;50.474;4.436;2023-07-08T07:50:31;24.14;50.36
78611;SHT30;67932;50.474;4.436;2023-07-08T07:52:57;24.21;50.36
78611;SHT30;67932;50.474;4.436;2023-07-08T07:55:23;24.23;50.93
78611;SHT30;67932;50.474;4.436;2023-07-08T07:57:50;24.31;50.21
78611;SHT30;67932;50.474;4.436;2023-07-08T08:00:16;24.33;50.58
78611;SHT30;67932;50.474;4.436;2023-07-08T08:02:43;24.56;49.80
78611;SHT30;67932;50.474;4.436;2023-07-08T08:05:09;24.46;51.76
78611;SHT30;67932;50.474;4.436;2023-07-08T08:07:36;24.50;50.41
78611;SHT30;67932;50.474;4.436;2023-07-08T08:10:03;24.47;51.45
78611;SHT30;67932;50.474;4.436;2023-07-08T08:12:29;24.61;49.71
78611;SHT30;67932;50.474;4.436;2023-07-08T08:14:56;24.82;51.58
78611;SHT30;67932;50.474;4.436;2023-07-08T08:17:22;24.75;50.70
78611;SHT30;67932;50.474;4.436;2023-07-08T08:19:48;24.74;51.49
78611;SHT30;67932;50.474;4.436;2023-07-08T08:22:14;24.77;50.88
78611;SHT30;67932;50.474;4.436;2023-07-08T08:24:41;24.82;51.63
78611;SHT30;67932;50.474;4.436;2023-07-08T08:27:07;24.81;51.93
78611;SHT30;67932;50.474;4.436;2023-07-08T08:29:33;24.84;52.10
78611;SHT30;67932;50.474;4.436;2023-07-08T08:31:59;24.82;51.63
78611;SHT30;67932;50.474;4.436;2023-07-08T08:34:26;24.90;51.84
78611;SHT30;67932;50.474;4.436;2023-07-08T08:36:52;25.07;50.24
78611;SHT30;67932;50.474;4.436;2023-07-08T08:39:21;25.34;48.82
78611;SHT30;67932;50.474;4.436;2023-07-08T08:41:50;25.48;49.18
78611;SHT30;67932;50.474;4.436;2023-07-08T08:44:26;25.42;50.82
78611;SHT30;67932;50.474;4.436;2023-07-08T08:52:42;25.62;51.08
78611;SHT30;67932;50.474;4.436;2023-07-08T08:55:13;25.59;50.11
78611;SHT30;67932;50.474;4.436;2023-07-08T08:58:04;25.55;49.69
78611;SHT30;67932;50.474;4.436;2023-07-08T09:03:17;25.89;48.72
78611;SHT30;67932;50.474;4.436;2023-07-08T09:05:47;25.92;49.32
78611;SHT30;67932;50.474;4.436;2023-07-08T09:10:53;26.33;47.31
78611;SHT30;67932;50.474;4.436;2023-07-08T09:13:37;26.23;48.46
78611;SHT30;67932;50.474;4.436;2023-07-08T09:18:38;26.36;48.42
78611;SHT30;67932;50.474;4.436;2023-07-08T09:21:20;26.47;47.57
78611;SHT30;67932;50.474;4.436;2023-07-08T09:23:49;26.55;48.01
78611;SHT30;67932;50.474;4.436;2023-07-08T09:26:19;26.71;50.04
78611;SHT30;67932;50.474;4.436;2023-07-08T09:28:47;26.80;48.46
78611;SHT30;67932;50.474;4.436;2023-07-08T09:31:29;26.81;47.16
78611;SHT30;67932;50.474;4.436;2023-07-08T09:34:14;26.81;47.40
78611;SHT30;67932;50.474;4.436;2023-07-08T09:36:47;27.15;46.61
78611;SHT30;67932;50.474;4.436;2023-07-08T09:39:20;27.01;48.93
78611;SHT30;67932;50.474;4.436;2023-07-08T09:41:48;27.09;47.94
78611;SHT30;67932;50.474;4.436;2023-07-08T09:46:43;27.39;48.13
78611;SHT30;67932;50.474;4.436;2023-07-08T09:49:34;27.34;48.31
78611;SHT30;67932;50.474;4.436;2023-07-08T09:52:02;27.46;47.57
78611;SHT30;67932;50.474;4.436;2023-07-08T09:54:28;27.63;47.10
78611;SHT30;67932;50.474;4.436;2023-07-08T09:59:49;28.28;43.88
78611;SHT30;67932;50.474;4.436;2023-07-08T10:04:59;27.96;46.19
78611;SHT30;67932;50.474;4.436;2023-07-08T10:07:31;28.04;44.78
78611;SHT30;67932;50.474;4.436;2023-07-08T10:10:00;27.93;46.45
78611;SHT30;67932;50.474;4.436;2023-07-08T10:12:27;27.99;47.48
78611;SHT30;67932;50.474;4.436;2023-07-08T10:15:20;28.32;45.48
78611;SHT30;67932;50.474;4.436;2023-07-08T10:17:48;28.25;47.26
78611;SHT30;67932;50.474;4.436;2023-07-08T10:20:14;28.65;43.96
78611;SHT30;67932;50.474;4.436;2023-07-08T10:25:33;28.43;45.04
78611;SHT30;67932;50.474;4.436;2023-07-08T10:31:10;28.87;44.40
78611;SHT30;67932;50.474;4.436;2023-07-08T10:45:01;29.28;43.78
78611;SHT30;67932;50.474;4.436;2023-07-08T10:47:49;29.35;46.82
78611;SHT30;67932;50.474;4.436;2023-07-08T10:53:18;29.53;45.09
78611;SHT30;67932;50.474;4.436;2023-07-08T11:06:45;31.07;40.02
78611;SHT30;67932;50.474;4.436;2023-07-08T11:10:18;30.56;41.93
78611;SHT30;67932;50.474;4.436;2023-07-08T11:12:26;30.33;42.11
78611;SHT30;67932;50.474;4.436;2023-07-08T11:17:49;30.20;43.63
78611;SHT30;67932;50.474;4.436;2023-07-08T11:23:13;29.83;44.91
78611;SHT30;67932;50.474;4.436;2023-07-08T11:25:45;29.74;45.49
78611;SHT30;67932;50.474;4.436;2023-07-08T11:28:17;30.21;44.79
78611;SHT30;67932;50.474;4.436;2023-07-08T11:30:47;30.81;44.95
78611;SHT30;67932;50.474;4.436;2023-07-08T11:33:19;30.64;45.30
78611;SHT30;67932;50.474;4.436;2023-07-08T11:35:51;30.54;45.59
78611;SHT30;67932;50.474;4.436;2023-07-08T11:38:21;30.75;45.77
78611;SHT30;67932;50.474;4.436;2023-07-08T11:40:53;30.98;45.40
78611;SHT30;67932;50.474;4.436;2023-07-08T11:43:21;30.85;46.63
78611;SHT30;67932;50.474;4.436;2023-07-08T11:45:50;30.16;47.98
78611;SHT30;67932;50.474;4.436;2023-07-08T11:50:49;30.68;46.27
78611;SHT30;67932;50.474;4.436;2023-07-08T11:58:56;31.38;45.17
78611;SHT30;67932;50.474;4.436;2023-07-08T12:01:27;31.87;43.45
78611;SHT30;67932;50.474;4.436;2023-07-08T12:04:16;31.63;43.98
78611;SHT30;67932;50.474;4.436;2023-07-08T12:06:47;30.77;45.43
78611;SHT30;67932;50.474;4.436;2023-07-08T12:09:27;30.69;45.81
78611;SHT30;67932;50.474;4.436;2023-07-08T12:12:00;30.20;46.04
78611;SHT30;67932;50.474;4.436;2023-07-08T12:14:28;30.33;46.63
78611;SHT30;67932;50.474;4.436;2023-07-08T12:16:56;30.36;45.49
78611;SHT30;67932;50.474;4.436;2023-07-08T12:19:23;30.49;45.77
78611;SHT30;67932;50.474;4.436;2023-07-08T12:21:52;30.75;45.17
78611;SHT30;67932;50.474;4.436;2023-07-08T12:24:18;31.14;44.33
78611;SHT30;67932;50.474;4.436;2023-07-08T12:26:51;31.85;43.23
78611;SHT30;67932;50.474;4.436;2023-07-08T12:29:17;32.27;42.73
78611;SHT30;67932;50.474;4.436;2023-07-08T12:31:44;32.54;42.15
78611;SHT30;67932;50.474;4.436;2023-07-08T12:34:15;31.45;43.36
78611;SHT30;67932;50.474;4.436;2023-07-08T12:36:44;31.49;44.06
78611;SHT30;67932;50.474;4.436;2023-07-08T12:39:15;31.93;43.25
78611;SHT30;67932;50.474;4.436;2023-07-08T12:41:44;32.90;41.06
78611;SHT30;67932;50.474;4.436;2023-07-08T12:44:23;33.55;39.71
78611;SHT30;67932;50.474;4.436;2023-07-08T12:46:53;32.53;41.15
78611;SHT30;67932;50.474;4.436;2023-07-08T12:49:20;32.92;40.77
78611;SHT30;67932;50.474;4.436;2023-07-08T12:51:48;33.11;40.19
78611;SHT30;67932;50.474;4.436;2023-07-08T12:54:14;32.13;41.61
78611;SHT30;67932;50.474;4.436;2023-07-08T12:56:43;31.92;42.55
78611;SHT30;67932;50.474;4.436;2023-07-08T12:59:17;32.03;41.75
78611;SHT30;67932;50.474;4.436;2023-07-08T13:01:46;31.35;43.13
78611;SHT30;67932;50.474;4.436;2023-07-08T13:04:13;30.63;44.45
78611;SHT30;67932;50.474;4.436;2023-07-08T13:06:41;31.01;44.20
78611;SHT30;67932;50.474;4.436;2023-07-08T13:09:39;30.69;43.66
78611;SHT30;67932;50.474;4.436;2023-07-08T13:12:26;30.94;45.35
78611;SHT30;67932;50.474;4.436;2023-07-08T13:14:54;30.79;44.92
78611;SHT30;67932;50.474;4.436;2023-07-08T13:17:23;30.68;45.66
78611;SHT30;67932;50.474;4.436;2023-07-08T13:19:50;30.71;44.70
78611;SHT30;67932;50.474;4.436;2023-07-08T13:22:19;30.75;44.78
78611;SHT30;67932;50.474;4.436;2023-07-08T13:24:46;31.03;44.53
78611;SHT30;67932;50.474;4.436;2023-07-08T13:27:31;30.61;45.67
78611;SHT30;67932;50.474;4.436;2023-07-08T13:30:18;31.23;45.01
78611;SHT30;67932;50.474;4.436;2023-07-08T13:32:48;31.97;43.50
78611;SHT30;67932;50.474;4.436;2023-07-08T13:35:22;32.47;43.92
78611;SHT30;67932;50.474;4.436;2023-07-08T13:37:49;32.82;42.29
78611;SHT30;67932;50.474;4.436;2023-07-08T13:40:17;32.16;41.51
78611;SHT30;67932;50.474;4.436;2023-07-08T13:42:50;33.25;39.83
78611;SHT30;67932;50.474;4.436;2023-07-08T13:45:24;33.56;39.14
78611;SHT30;67932;50.474;4.436;2023-07-08T13:50:31;35.10;37.46
78611;SHT30;67932;50.474;4.436;2023-07-08T13:53:02;35.28;36.47
78611;SHT30;67932;50.474;4.436;2023-07-08T13:55:29;35.69;36.20
78611;SHT30;67932;50.474;4.436;2023-07-08T13:58:01;35.34;36.80
78611;SHT30;67932;50.474;4.436;2023-07-08T14:00:30;34.86;36.57
78611;SHT30;67932;50.474;4.436;2023-07-08T14:02:57;36.00;37.53
78611;SHT30;67932;50.474;4.436;2023-07-08T14:05:23;35.45;35.03
78611;SHT30;67932;50.474;4.436;2023-07-08T14:07:50;35.39;38.97
78611;SHT30;67932;50.474;4.436;2023-07-08T14:10:16;34.43;35.94
78611;SHT30;67932;50.474;4.436;2023-07-08T14:12:42;34.53;36.12
78611;SHT30;67932;50.474;4.436;2023-07-08T14:15:09;35.39;36.67
78611;SHT30;67932;50.474;4.436;2023-07-08T14:17:37;34.41;36.38
78611;SHT30;67932;50.474;4.436;2023-07-08T14:20:12;34.59;36.38
78611;SHT30;67932;50.474;4.436;2023-07-08T14:22:41;35.11;35.83
78611;SHT30;67932;50.474;4.436;2023-07-08T14:25:09;35.68;34.51
78611;SHT30;67932;50.474;4.436;2023-07-08T14:27:36;35.04;36.25
78611;SHT30;67932;50.474;4.436;2023-07-08T14:30:02;34.54;35.34
78611;SHT30;67932;50.474;4.436;2023-07-08T14:32:30;35.84;35.60
78611;SHT30;67932;50.474;4.436;2023-07-08T14:35:17;35.55;34.05
78611;SHT30;67932;50.474;4.436;2023-07-08T14:37:44;35.41;35.24
78611;SHT30;67932;50.474;4.436;2023-07-08T14:40:27;35.01;35.47
78611;SHT30;67932;50.474;4.436;2023-07-08T14:43:43;35.86;36.00
78611;SHT30;67932;50.474;4.436;2023-07-08T14:45:49;35.88;33.90
78611;SHT30;67932;50.474;4.436;2023-07-08T14:48:16;35.81;34.12
78611;SHT30;67932;50.474;4.436;2023-07-08T14:50:42;35.65;34.75
78611;SHT30;67932;50.474;4.436;2023-07-08T14:53:09;36.16;34.51
78611;SHT30;67932;50.474;4.436;2023-07-08T14:55:36;36.64;33.93
78611;SHT30;67932;50.474;4.436;2023-07-08T14:58:03;36.73;33.51
78611;SHT30;67932;50.474;4.436;2023-07-08T15:00:29;36.10;33.36
78611;SHT30;67932;50.474;4.436;2023-07-08T15:02:56;37.76;31.72
78611;SHT30;67932;50.474;4.436;2023-07-08T15:05:27;37.62;31.34
78611;SHT30;67932;50.474;4.436;2023-07-08T15:07:57;36.23;31.50
78611;SHT30;67932;50.474;4.436;2023-07-08T15:10:26;35.55;34.28
78611;SHT30;67932;50.474;4.436;2023-07-08T15:12:53;35.31;33.42
78611;SHT30;67932;50.474;4.436;2023-07-08T15:15:33;34.98;36.08
78611;SHT30;67932;50.474;4.436;2023-07-08T15:18:14;35.31;34.57
78611;SHT30;67932;50.474;4.436;2023-07-08T15:20:40;35.41;34.06
78611;SHT30;67932;50.474;4.436;2023-07-08T15:23:07;34.81;35.47
78611;SHT30;67932;50.474;4.436;2023-07-08T15:25:34;34.41;36.04
78611;SHT30;67932;50.474;4.436;2023-07-08T15:28:02;34.05;36.30
78611;SHT30;67932;50.474;4.436;2023-07-08T15:30:30;33.92;36.98
78611;SHT30;67932;50.474;4.436;2023-07-08T15:32:57;33.99;37.44
78611;SHT30;67932;50.474;4.436;2023-07-08T15:35:27;33.22;39.74
78611;SHT30;67932;50.474;4.436;2023-07-08T15:37:57;33.55;39.36
78611;SHT30;67932;50.474;4.436;2023-07-08T15:40:24;33.54;39.41
78611;SHT30;67932;50.474;4.436;2023-07-08T15:42:54;33.28;39.13
78611;SHT30;67932;50.474;4.436;2023-07-08T15:45:25;33.51;38.67
78611;SHT30;67932;50.474;4.436;2023-07-08T15:47:53;32.92;39.17
78611;SHT30;67932;50.474;4.436;2023-07-08T15:50:22;33.07;40.01
78611;SHT30;67932;50.474;4.436;2023-07-08T15:52:50;33.65;38.92
78611;SHT30;67932;50.474;4.436;2023-07-08T15:55:31;33.38;40.97
78611;SHT30;67932;50.474;4.436;2023-07-08T15:58:18;33.17;41.55
78611;SHT30;67932;50.474;4.436;2023-07-08T16:00:45;32.54;43.50
78611;SHT30;67932;50.474;4.436;2023-07-08T16:03:25;32.27;43.27
78611;SHT30;67932;50.474;4.436;2023-07-08T16:05:52;32.20;44.35
78611;SHT30;67932;50.474;4.436;2023-07-08T16:08:19;32.17;43.94
78611;SHT30;67932;50.474;4.436;2023-07-08T16:10:50;32.23;44.46
78611;SHT30;67932;50.474;4.436;2023-07-08T16:13:30;32.13;44.31
78611;SHT30;67932;50.474;4.436;2023-07-08T16:15:58;32.31;44.17
78611;SHT30;67932;50.474;4.436;2023-07-08T16:18:24;32.56;42.92
78611;SHT30;67932;50.474;4.436;2023-07-08T16:20:51;32.74;42.59
78611;SHT30;67932;50.474;4.436;2023-07-08T16:23:17;33.32;41.43
78611;SHT30;67932;50.474;4.436;2023-07-08T16:25:47;33.90;40.62
78611;SHT30;67932;50.474;4.436;2023-07-08T16:28:38;33.44;41.09
78611;SHT30;67932;50.474;4.436;2023-07-08T16:31:16;34.13;41.00
78611;SHT30;67932;50.474;4.436;2023-07-08T16:33:43;33.34;41.35
78611;SHT30;67932;50.474;4.436;2023-07-08T16:36:14;33.07;41.67
78611;SHT30;67932;50.474;4.436;2023-07-08T16:38:41;32.74;42.34
78611;SHT30;67932;50.474;4.436;2023-07-08T16:41:29;31.98;43.20
78611;SHT30;67932;50.474;4.436;2023-07-08T16:43:59;32.07;42.95
78611;SHT30;67932;50.474;4.436;2023-07-08T16:46:25;32.16;42.82
78611;SHT30;67932;50.474;4.436;2023-07-08T16:48:51;32.37;42.61
78611;SHT30;67932;50.474;4.436;2023-07-08T16:51:23;32.00;43.07
78611;SHT30;67932;50.474;4.436;2023-07-08T16:53:50;32.02;43.04
78611;SHT30;67932;50.474;4.436;2023-07-08T16:56:20;32.40;42.61
78611;SHT30;67932;50.474;4.436;2023-07-08T16:58:47;31.97;44.77
78611;SHT30;67932;50.474;4.436;2023-07-08T17:01:22;32.02;43.28
78611;SHT30;67932;50.474;4.436;2023-07-08T17:03:50;31.82;43.23
78611;SHT30;67932;50.474;4.436;2023-07-08T17:06:17;31.89;43.39
78611;SHT30;67932;50.474;4.436;2023-07-08T17:08:43;32.00;44.10
78611;SHT30;67932;50.474;4.436;2023-07-08T17:11:10;31.76;42.76